KCLL/CLL METAR and TAF weather

Enter ICAO airport designator
Station Type Date Time Source
KCLL METAR 2018/12/12 16:53 UTC NOAA

KCLL 121653Z 17013KT 10SM BKN034 OVC055 17/13 A3004 RMK AO2 SLP171 T01670128


Station Type Date Time Source
KCLL Decoded METAR 2018/12/12 16:53 UTC NOAA

COLLEGE STN EASTERWOOD FIELD, TX, United States (KCLL) 30-35N 096-22W 96M
Dec 12, 2018 - 11:53 AM EST / 2018.12.12 1653 UTC
Wind: from the S (170 degrees) at 15 MPH (13 KT):0
Visibility: 10 mile(s):0
Sky conditions: overcast
Temperature: 62.1 F (16.7 C)
Dew Point: 55.0 F (12.8 C)
Relative Humidity: 77%
Pressure (altimeter): 30.04 in. Hg (1017 hPa)
ob: KCLL 121653Z 17013KT 10SM BKN034 OVC055 17/13 A3004 RMK AO2 SLP171 T01670128
cycle: 17

Station Type Date Time Source
KCLL TAF 2018/12/12 12:22 UTC NOAA

TAF KCLL 121120Z 1212/1312 16009KT P6SM BKN035 BKN250
FM122100 17012KT P6SM BKN015 BKN035
FM130100 17010KT P6SM VCSH SCT015 OVC025
FM130700 17008KT P6SM VCTS BKN015CB OVC025


Example: see airport list